Time;durP1;ratioP1;P1;durP2;ratioP2;P2;SDS_P1;SDS_P2;PMS_P1;PMS_P2;Temp;Humidity;BMP_temperature;BMP_pressure;BME280_temperature;BME280_humidity;BME280_pressure;Samples;Min_cycle;Max_cycle;Signal;HPM_P1;HPM_P2
2022/05/17 00:00:21;;;;;;;;;3.75;3.75;;;;;24.56;44.65;101335.16;2086709;28;47994;-56
2022/05/17 00:01:23;;;;;;;;;5.50;5.00;;;;;24.55;44.68;101338.88;2103388;27;47280;-57
2022/05/17 00:02:23;;;;;;;;;3.00;3.00;;;;;24.53;44.83;101336.25;2101994;27;45962;-56
2022/05/17 00:03:24;;;;;;;;;9.75;5.50;;;;;24.52;44.88;101339.97;2087114;28;48483;-57
2022/05/17 00:04:25;;;;;;;;;5.50;5.50;;;;;24.51;45.06;101340.91;2086530;28;48281;-57
2022/05/17 00:05:27;;;;;;;;;4.20;4.20;;;;;24.50;44.97;101336.44;2086851;28;47242;-58
2022/05/17 00:06:29;;;;;;;;;4.00;3.60;;;;;24.50;45.05;101341.00;2089285;28;47613;-57
2022/05/17 00:07:29;;;;;;;;;6.20;5.80;;;;;24.49;44.97;101337.44;2067755;28;47958;-57
2022/05/17 00:08:30;;;;;;;;;4.75;4.75;;;;;24.49;44.88;101339.28;2069156;28;48013;-57
2022/05/17 00:09:31;;;;;;;;;5.00;5.00;;;;;24.49;44.73;101336.56;2086757;28;47681;-57
2022/05/17 00:10:32;;;;;;;;;5.00;5.00;;;;;24.48;44.85;101337.53;2088221;28;48665;-56
2022/05/17 00:11:33;;;;;;;;;5.25;5.25;;;;;24.47;45.07;101333.09;2076829;28;46484;-57
2022/05/17 00:12:34;;;;;;;;;5.25;5.25;;;;;24.45;44.95;101340.47;2076386;28;47682;-58
2022/05/17 00:13:35;;;;;;;;;4.80;4.80;;;;;24.43;44.94;101342.44;2084846;28;47606;-57
2022/05/17 00:14:35;;;;;;;;;5.00;4.25;;;;;24.42;45.01;101335.28;2089766;28;47525;-58
2022/05/17 00:15:40;;;;;;;;;7.00;6.50;;;;;24.42;45.17;101338.00;2086560;28;47721;-57
2022/05/17 00:16:42;;;;;;;;;4.60;4.60;;;;;24.41;44.79;101336.25;2088531;28;47746;-58
2022/05/17 00:17:43;;;;;;;;;3.60;3.60;;;;;24.41;45.18;101337.13;2084478;28;47514;-57
2022/05/17 00:18:43;;;;;;;;;6.25;5.25;;;;;24.40;45.04;101334.50;2079431;28;47404;-57
2022/05/17 00:19:44;;;;;;;;;5.75;5.00;;;;;24.38;45.19;101331.88;2088142;28;47627;-57
2022/05/17 00:20:46;;;;;;;;;4.25;4.25;;;;;24.37;45.41;101327.44;2090676;28;48124;-55
2022/05/17 00:21:48;;;;;;;;;4.50;4.50;;;;;24.36;45.08;101334.72;2083336;28;48144;-57
2022/05/17 00:22:49;;;;;;;;;4.20;4.20;;;;;24.36;45.21;101332.00;2089635;28;46124;-57
2022/05/17 00:23:50;;;;;;;;;4.60;4.60;;;;;24.36;45.43;101328.41;2084482;28;47830;-57
2022/05/17 00:24:50;;;;;;;;;4.50;3.50;;;;;24.35;45.38;101337.53;2087460;28;46771;-56
2022/05/17 00:25:51;;;;;;;;;5.00;5.00;;;;;24.35;45.29;101329.41;2088591;28;47649;-57
2022/05/17 00:26:52;;;;;;;;;3.75;3.25;;;;;24.35;45.33;101332.09;2087190;28;47509;-57
2022/05/17 00:27:53;;;;;;;;;5.20;5.00;;;;;24.35;45.40;101326.69;2086055;28;48062;-57
2022/05/17 00:28:53;;;;;;;;;5.00;4.50;;;;;24.33;45.53;101332.22;2088551;28;47663;-58
2022/05/17 00:29:53;;;;;;;;;5.00;5.00;;;;;24.34;45.55;101327.66;2086326;28;47972;-57
2022/05/17 00:30:54;;;;;;;;;5.75;5.75;;;;;24.33;45.39;101325.91;2089447;28;47242;-56
2022/05/17 00:31:54;;;;;;;;;6.50;5.00;;;;;24.33;45.50;101323.22;2089154;28;47577;-56
2022/05/17 00:32:55;;;;;;;;;4.00;4.00;;;;;24.32;45.39;101327.78;2086556;28;47259;-56
2022/05/17 00:33:56;;;;;;;;;4.00;4.00;;;;;24.31;45.68;101325.16;2090296;28;47792;-56
2022/05/17 00:34:57;;;;;;;;;4.00;4.00;;;;;24.31;45.71;101325.16;2086209;28;47517;-57
2022/05/17 00:35:57;;;;;;;;;4.00;4.00;;;;;24.29;45.60;101317.09;2086676;28;47583;-56
2022/05/17 00:36:59;;;;;;;;;5.00;5.00;;;;;24.30;45.82;101331.56;2085212;28;47804;-57
2022/05/17 00:37:59;;;;;;;;;5.00;4.40;;;;;24.29;45.59;101325.25;2086847;28;47870;-56
2022/05/17 00:39:00;;;;;;;;;3.00;3.00;;;;;24.28;45.81;101322.63;2087424;28;47368;-57
2022/05/17 00:40:02;;;;;;;;;5.50;5.00;;;;;24.26;45.45;101317.28;2085045;28;48129;-56
2022/05/17 00:41:03;;;;;;;;;4.75;4.75;;;;;24.25;45.79;101325.53;2085622;28;47560;-55
2022/05/17 00:42:04;;;;;;;;;3.00;3.00;;;;;24.23;45.91;101325.66;2087046;28;46600;-56
2022/05/17 00:43:07;;;;;;;;;4.75;4.75;;;;;24.22;45.74;101320.34;2083772;28;47365;-54
2022/05/17 00:45:28;;;;;;;;;4.60;4.60;;;;;24.20;45.81;101320.44;2087999;28;47770;-56
2022/05/17 00:46:32;;;;;;;;;2.00;2.00;;;;;24.19;45.90;101317.84;2091575;28;47593;-57
2022/05/17 00:47:39;;;;;;;;;3.20;3.00;;;;;24.18;46.22;101316.97;2085870;27;47684;-56
2022/05/17 00:48:40;;;;;;;;;5.00;4.75;;;;;24.18;45.88;101319.69;2091156;28;47799;-56
2022/05/17 00:49:59;;;;;;;;;7.50;6.50;;;;;24.17;46.03;101314.38;2091413;28;48107;-55
2022/05/17 00:50:59;;;;;;;;;4.20;4.20;;;;;24.16;46.05;101318.94;2094096;28;46714;-56
2022/05/17 00:52:06;;;;;;;;;4.67;4.67;;;;;24.15;46.19;101324.47;2096321;28;47781;-56
2022/05/17 00:53:12;;;;;;;;;5.50;5.50;;;;;24.15;46.34;101322.63;2092879;28;48024;-56
2022/05/17 00:54:16;;;;;;;;;5.00;5.00;;;;;24.14;45.89;101317.28;2095565;28;47764;-57
2022/05/17 00:55:28;;;;;;;;;6.75;6.00;;;;;24.13;45.90;101320.97;2090254;28;48206;-55
2022/05/17 00:56:29;;;;;;;;;4.20;4.20;;;;;24.12;45.86;101317.38;2096189;28;47451;-56
2022/05/17 00:57:48;;;;;;;;;4.50;4.00;;;;;24.11;46.28;101315.66;2092738;28;47593;-55
2022/05/17 00:58:57;;;;;;;;;0.25;0.25;;;;;24.09;46.19;101312.19;2094849;28;47706;-55
2022/05/17 01:00:04;;;;;;;;;4.75;4.00;;;;;24.10;46.17;101315.75;2081210;28;47659;-54
2022/05/17 01:01:20;;;;;;;;;4.60;4.20;;;;;24.06;46.25;101310.56;2087263;28;47582;-59
2022/05/17 01:02:21;;;;;;;;;7.50;6.00;;;;;24.05;46.39;101316.94;2091805;28;47861;-56
2022/05/17 01:03:24;;;;;;;;;6.00;5.50;;;;;24.04;46.57;101312.50;2092846;28;47149;-56
2022/05/17 01:04:26;;;;;;;;;4.00;4.00;;;;;24.03;46.26;101316.19;2091280;28;48187;-56
2022/05/17 01:05:31;;;;;;;;;6.75;4.00;;;;;24.02;46.52;101313.59;2076726;28;48159;-56
2022/05/17 01:06:37;;;;;;;;;4.75;4.00;;;;;24.01;46.54;101310.00;2079806;28;47939;-57
2022/05/17 01:07:42;;;;;;;;;6.40;6.00;;;;;24.00;46.21;101313.66;2093157;28;45845;-57
2022/05/17 01:08:43;;;;;;;;;1.75;1.75;;;;;23.99;46.34;101306.50;2095079;28;47579;-57
2022/05/17 01:09:43;;;;;;;;;4.75;4.75;;;;;24.01;46.43;101309.13;2091651;28;47557;-57
2022/05/17 01:10:44;;;;;;;;;7.33;6.33;;;;;24.01;46.75;101312.72;2095520;28;45883;-57
2022/05/17 01:11:44;;;;;;;;;5.33;4.67;;;;;24.01;46.60;101309.13;2091586;28;47603;-56
2022/05/17 01:14:57;;;;;;;;;5.33;5.00;;;;;24.01;46.66;101307.31;2094261;28;47239;-57
2022/05/17 01:15:26;;;;;;;;;5.40;4.00;;;;;24.02;46.58;101305.47;2092738;28;48293;-56
2022/05/17 01:16:27;;;;;;;;;6.67;5.00;;;;;24.01;46.43;101307.31;2087072;28;47832;-54
2022/05/17 01:17:32;;;;;;;;;6.00;6.00;;;;;24.03;46.67;101304.47;2084450;28;47261;-57
2022/05/17 01:18:34;;;;;;;;;4.75;4.50;;;;;24.00;46.78;101305.53;2088289;28;47696;-57
2022/05/17 01:19:34;;;;;;;;;5.60;5.60;;;;;24.01;46.83;101298.25;2076777;28;47902;-53
2022/05/17 01:20:35;;;;;;;;;4.00;4.00;;;;;24.00;46.61;101296.53;2079211;28;47733;-57
2022/05/17 01:21:37;;;;;;;;;6.80;5.80;;;;;23.97;46.37;101304.88;2087781;28;47734;-57
2022/05/17 01:22:38;;;;;;;;;4.25;3.75;;;;;23.95;46.67;101302.28;2091595;28;47597;-56
2022/05/17 01:23:38;;;;;;;;;5.00;4.00;;;;;23.95;46.72;101298.69;2086345;28;48048;-58
2022/05/17 01:24:39;;;;;;;;;5.50;5.50;;;;;23.94;46.82;101300.53;2091019;28;47540;-57
2022/05/17 01:25:40;;;;;;;;;4.25;4.25;;;;;23.93;46.81;101297.94;2083649;28;47419;-57
2022/05/17 01:26:44;;;;;;;;;7.00;6.00;;;;;23.92;46.85;101299.78;2088386;28;47755;-57
2022/05/17 01:27:53;;;;;;;;;4.00;4.00;;;;;23.91;46.66;101300.75;2085975;28;47620;-57
2022/05/17 01:28:54;;;;;;;;;2.80;2.80;;;;;23.91;47.10;101302.59;2086282;28;48126;-57
2022/05/17 01:29:55;;;;;;;;;4.00;4.00;;;;;23.90;46.83;101298.16;2089374;28;48026;-58
2022/05/17 01:31:03;;;;;;;;;5.25;4.50;;;;;23.90;46.40;101301.75;2096607;28;47993;-58
2022/05/17 01:32:04;;;;;;;;;4.00;4.00;;;;;23.91;46.80;101291.75;2090514;28;46982;-57
2022/05/17 01:33:05;;;;;;;;;5.50;5.50;;;;;23.90;46.84;101299.03;2077106;28;47457;-58
2022/05/17 01:34:13;;;;;;;;;3.50;3.50;;;;;23.90;47.01;101295.44;2081823;28;47504;-58
2022/05/17 01:35:14;;;;;;;;;4.00;4.00;;;;;23.87;46.62;101296.50;2086139;28;47834;-56
2022/05/17 01:36:16;;;;;;;;;3.00;3.00;;;;;23.87;46.88;101295.63;2088041;28;47854;-58
2022/05/17 01:37:17;;;;;;;;;5.60;5.60;;;;;23.88;46.72;101297.38;2089380;28;47892;-58
2022/05/17 01:38:18;;;;;;;;;4.80;4.80;;;;;23.87;46.58;101299.22;2089277;28;47899;-58
2022/05/17 01:39:19;;;;;;;;;3.00;3.00;;;;;23.87;46.78;101299.22;2086399;28;48245;-57
2022/05/17 01:40:19;;;;;;;;;5.25;5.25;;;;;23.87;46.79;101304.63;2086660;28;47973;-56
2022/05/17 01:41:21;;;;;;;;;4.00;4.00;;;;;23.88;46.83;101300.06;2082387;28;47912;-58
2022/05/17 01:42:21;;;;;;;;;4.80;4.80;;;;;23.88;46.55;101298.25;2089945;28;47632;-58
2022/05/17 01:43:22;;;;;;;;;4.25;4.25;;;;;23.89;46.78;101304.56;2086378;28;46591;-58
2022/05/17 01:44:23;;;;;;;;;4.00;4.00;;;;;23.88;46.70;101306.38;2087605;28;47875;-58
2022/05/17 01:45:23;;;;;;;;;4.00;4.00;;;;;23.88;46.91;101300.06;2088161;28;47585;-58
2022/05/17 01:46:24;;;;;;;;;5.75;5.75;;;;;23.86;46.63;101297.47;2090337;28;47842;-57
2022/05/17 01:47:24;;;;;;;;;4.75;4.75;;;;;23.87;46.77;101295.63;2087437;28;45737;-58
2022/05/17 01:48:24;;;;;;;;;7.75;3.75;;;;;23.87;46.65;101298.34;2086107;28;47566;-57
2022/05/17 01:49:25;;;;;;;;;3.50;3.50;;;;;23.86;46.64;101300.19;2086663;28;47553;-58
2022/05/17 01:50:26;;;;;;;;;4.50;3.75;;;;;23.86;46.81;101297.47;2087280;28;47496;-57
2022/05/17 01:51:26;;;;;;;;;6.00;6.00;;;;;23.85;46.91;101301.16;2086860;28;48200;-57
2022/05/17 01:52:27;;;;;;;;;5.00;5.00;;;;;23.85;46.78;101300.28;2083984;28;47477;-57
2022/05/17 01:53:27;;;;;;;;;5.00;4.50;;;;;23.84;46.80;101307.56;2087595;28;47517;-58
2022/05/17 01:54:27;;;;;;;;;3.00;3.00;;;;;23.85;46.86;101297.59;2086436;28;48044;-58
2022/05/17 01:55:28;;;;;;;;;4.25;4.25;;;;;23.85;46.85;101292.16;2090501;28;47480;-58
2022/05/17 01:56:28;;;;;;;;;5.50;3.25;;;;;23.85;46.77;101297.59;2080209;28;47500;-57
2022/05/17 01:57:28;;;;;;;;;5.00;4.00;;;;;23.85;46.75;101297.59;2076336;28;47654;-58
2022/05/17 01:58:29;;;;;;;;;4.50;4.50;;;;;23.84;46.75;101291.31;2079183;28;46012;-58
2022/05/17 01:59:31;;;;;;;;;6.00;6.00;;;;;23.83;46.97;101296.81;2073999;28;48039;-57
2022/05/17 02:00:32;;;;;;;;;6.00;5.40;;;;;23.81;47.04;101298.78;2070655;28;47834;-58
2022/05/17 02:01:32;;;;;;;;;5.25;5.25;;;;;23.80;47.02;101297.03;2074519;28;46718;-57
2022/05/17 02:02:33;;;;;;;;;3.25;3.25;;;;;23.80;46.82;101297.03;2078911;28;47792;-57
2022/05/17 02:03:35;;;;;;;;;6.25;5.25;;;;;23.77;46.93;101301.69;2076309;28;47557;-57
2022/05/17 02:04:35;;;;;;;;;4.00;3.80;;;;;23.76;47.06;101299.97;2078892;28;48502;-57
2022/05/17 02:05:36;;;;;;;;;5.00;4.00;;;;;23.76;47.00;101308.09;2076543;28;47467;-55
2022/05/17 02:06:36;;;;;;;;;4.50;4.50;;;;;23.76;46.93;101301.81;2078920;28;47913;-56
2022/05/17 02:07:37;;;;;;;;;3.00;3.00;;;;;23.76;46.79;101301.81;2077431;28;47666;-56
2022/05/17 02:08:38;;;;;;;;;6.25;6.25;;;;;23.74;47.43;101301.88;2072317;28;47472;-55
2022/05/17 02:09:38;;;;;;;;;6.50;6.50;;;;;23.74;47.01;101299.19;2072405;28;47851;-56
2022/05/17 02:10:39;;;;;;;;;5.25;5.25;;;;;23.73;47.46;101299.28;2077897;28;47504;-56
2022/05/17 02:11:40;;;;;;;;;6.25;6.00;;;;;23.72;47.25;101297.53;2071003;28;47331;-56
2022/05/17 02:12:41;;;;;;;;;6.00;5.60;;;;;23.71;47.12;101306.66;2076698;28;47716;-56
2022/05/17 02:13:41;;;;;;;;;6.25;6.25;;;;;23.70;47.29;101304.91;2077202;28;47529;-57
2022/05/17 02:14:42;;;;;;;;;4.00;4.00;;;;;23.69;46.96;101309.47;2078674;28;47813;-55
2022/05/17 02:15:42;;;;;;;;;5.00;5.00;;;;;23.68;47.47;101318.56;2077741;28;47231;-57
2022/05/17 02:16:43;;;;;;;;;6.25;5.75;;;;;23.68;47.19;101326.69;2078782;28;47624;-56
2022/05/17 02:17:43;;;;;;;;;5.50;5.25;;;;;23.67;47.38;101337.66;2075755;28;47975;-57
2022/05/17 02:18:43;;;;;;;;;5.25;5.25;;;;;23.66;47.57;101344.91;2072373;28;47748;-57
2022/05/17 02:19:44;;;;;;;;;4.00;4.00;;;;;23.65;47.18;101342.31;2077246;28;48022;-57
2022/05/17 02:20:44;;;;;;;;;5.00;5.00;;;;;23.65;47.28;101339.59;2082376;28;47166;-57
2022/05/17 02:21:46;;;;;;;;;9.25;7.00;;;;;23.63;47.29;101319.84;2060825;28;47946;-58
2022/05/17 02:22:47;;;;;;;;;8.60;6.60;;;;;23.62;47.26;101326.22;2066217;28;47639;-57
2022/05/17 02:23:47;;;;;;;;;6.00;6.00;;;;;23.61;47.36;101324.50;2066043;28;47992;-58
2022/05/17 02:24:48;;;;;;;;;6.00;6.00;;;;;23.60;47.19;101336.31;2070464;28;47673;-58
2022/05/17 02:25:48;;;;;;;;;6.25;5.75;;;;;23.60;47.73;101339.00;2073551;28;47832;-58
2022/05/17 02:26:49;;;;;;;;;6.00;6.00;;;;;23.58;47.52;101333.69;2079452;28;47910;-57
2022/05/17 02:27:49;;;;;;;;;7.50;7.50;;;;;23.58;47.45;101330.13;2078283;28;45210;-57
2022/05/17 02:28:49;;;;;;;;;5.00;5.00;;;;;23.57;47.60;101328.34;2090670;28;47371;-58
2022/05/17 02:29:50;;;;;;;;;3.00;3.00;;;;;23.57;47.63;101331.94;2084953;28;47987;-57
2022/05/17 02:30:50;;;;;;;;;5.00;5.00;;;;;23.56;47.68;101332.91;2091989;28;47729;-55
2022/05/17 02:31:51;;;;;;;;;5.00;5.00;;;;;23.56;47.55;101327.47;2086509;28;48096;-57
2022/05/17 02:32:53;;;;;;;;;5.60;5.60;;;;;23.56;47.47;101329.31;2088006;28;47399;-57
2022/05/17 02:33:53;;;;;;;;;7.00;6.40;;;;;23.54;47.89;101326.72;2089805;28;48172;-57
2022/05/17 02:34:53;;;;;;;;;7.00;7.00;;;;;23.54;47.97;101325.84;2087615;28;47695;-57
2022/05/17 02:35:54;;;;;;;;;4.50;4.50;;;;;23.53;47.57;101332.25;2083179;28;47762;-55
2022/05/17 02:36:54;;;;;;;;;6.25;6.25;;;;;23.52;47.58;101339.50;2086844;28;47536;-55
2022/05/17 02:37:54;;;;;;;;;5.75;5.50;;;;;23.52;47.81;101344.94;2084963;28;48491;-57
2022/05/17 02:38:55;;;;;;;;;4.25;4.25;;;;;23.53;47.69;101351.22;2090165;28;47445;-56
2022/05/17 02:39:55;;;;;;;;;4.75;4.75;;;;;23.52;47.56;101335.94;2095688;28;47884;-54
2022/05/17 02:40:56;;;;;;;;;5.50;5.50;;;;;23.52;47.45;101328.66;2092487;28;48036;-57
2022/05/17 02:41:57;;;;;;;;;8.00;7.00;;;;;23.52;47.55;101325.97;2088154;28;48002;-57
2022/05/17 02:42:58;;;;;;;;;6.75;6.75;;;;;23.52;47.38;101325.97;2085973;28;47686;-57
2022/05/17 02:43:58;;;;;;;;;7.00;7.00;;;;;23.52;47.63;101328.66;2087305;28;47464;-56
2022/05/17 02:44:59;;;;;;;;;6.33;5.00;;;;;23.52;47.17;101327.81;2089903;28;48034;-56
2022/05/17 02:45:59;;;;;;;;;8.67;8.33;;;;;23.51;47.66;101335.06;2087450;28;47627;-57
2022/05/17 02:47:00;;;;;;;;;5.00;5.00;;;;;23.51;47.57;101342.31;2087774;28;47691;-57
2022/05/17 02:48:00;;;;;;;;;5.00;5.00;;;;;23.50;47.32;101346.84;2086539;28;47861;-56
2022/05/17 02:49:04;;;;;;;;;4.25;4.25;;;;;23.49;47.80;101342.41;2060460;28;47607;-56
2022/05/17 02:50:05;;;;;;;;;5.00;5.00;;;;;23.49;47.42;101340.56;2069865;28;47832;-55
2022/05/17 02:51:19;;;;;;;;;4.80;4.80;;;;;23.49;47.57;101337.84;2085446;28;47919;-57
2022/05/17 02:52:20;;;;;;;;;6.40;6.40;;;;;23.49;47.47;101332.44;2085525;28;47856;-57
2022/05/17 02:53:21;;;;;;;;;5.00;5.00;;;;;23.48;47.16;101335.25;2087584;28;47524;-57
2022/05/17 02:54:21;;;;;;;;;6.40;5.80;;;;;23.48;47.80;101332.53;2087434;28;47596;-58
2022/05/17 02:55:22;;;;;;;;;4.25;3.50;;;;;23.47;47.63;101336.22;2079791;28;47887;-56
2022/05/17 02:56:22;;;;;;;;;6.00;6.00;;;;;23.47;47.44;101330.78;2077287;28;47185;-57
2022/05/17 02:57:23;;;;;;;;;6.00;4.00;;;;;23.47;47.68;101330.78;2077922;28;47951;-57
2022/05/17 02:58:23;;;;;;;;;7.75;7.75;;;;;23.46;47.62;101335.34;2081167;28;47143;-57
2022/05/17 02:59:24;;;;;;;;;5.00;5.00;;;;;23.45;47.64;101333.59;2082185;28;47974;-58
2022/05/17 03:00:26;;;;;;;;;4.50;4.50;;;;;23.46;47.85;101334.47;2081526;28;47289;-58
2022/05/17 03:01:26;;;;;;;;;5.60;4.60;;;;;23.47;47.96;101322.66;2083940;28;47464;-56
2022/05/17 03:02:27;;;;;;;;;4.33;4.33;;;;;23.47;47.54;101331.66;2087708;28;47723;-57
2022/05/17 03:03:28;;;;;;;;;5.00;4.33;;;;;23.47;47.61;101331.66;2083782;28;47034;-55
2022/05/17 03:04:29;;;;;;;;;5.20;5.20;;;;;23.48;47.47;101332.53;2084235;28;47826;-55
2022/05/17 03:05:29;;;;;;;;;6.75;6.75;;;;;23.48;47.60;101329.81;2086863;28;47842;-57
2022/05/17 03:06:30;;;;;;;;;5.00;5.00;;;;;23.47;47.39;101326.25;2090273;28;47562;-56
2022/05/17 03:07:31;;;;;;;;;5.25;4.25;;;;;23.48;47.80;101333.41;2089526;28;47403;-57
2022/05/17 03:08:31;;;;;;;;;4.20;4.00;;;;;23.47;47.51;101336.22;2079850;28;47468;-56
2022/05/17 03:09:32;;;;;;;;;5.00;5.00;;;;;23.46;47.41;101332.63;2091916;28;47562;-56
2022/05/17 03:10:32;;;;;;;;;4.00;4.00;;;;;23.46;47.67;101337.19;2087157;28;47956;-56
2022/05/17 03:11:33;;;;;;;;;5.25;5.25;;;;;23.45;47.61;101333.59;2088573;28;47619;-55
2022/05/17 03:12:33;;;;;;;;;5.00;5.00;;;;;23.46;47.68;101334.47;2091243;28;48060;-58
2022/05/17 03:13:35;;;;;;;;;3.67;3.67;;;;;23.44;47.56;101329.16;2054978;28;47817;-56
2022/05/17 03:14:36;;;;;;;;;5.40;5.40;;;;;23.44;47.39;101325.59;2064260;28;47649;-57
2022/05/17 03:15:37;;;;;;;;;5.00;5.00;;;;;23.44;47.51;101323.75;2087472;28;47891;-57
2022/05/17 03:16:38;;;;;;;;;6.00;6.00;;;;;23.46;47.34;101329.06;2089225;28;47230;-57
2022/05/17 03:17:39;;;;;;;;;4.25;4.25;;;;;23.43;47.36;101319.28;2089386;28;47945;-56
2022/05/17 03:18:40;;;;;;;;;4.80;4.80;;;;;23.44;47.58;101328.28;2087119;28;47867;-56
2022/05/17 03:19:41;;;;;;;;;5.25;5.25;;;;;23.44;47.15;101320.16;2087071;28;47348;-56
2022/05/17 03:20:42;;;;;;;;;5.80;5.80;;;;;23.44;47.57;101323.75;2090782;28;47785;-56
2022/05/17 03:21:42;;;;;;;;;5.00;5.00;;;;;23.45;47.40;101319.19;2087446;28;47283;-56
2022/05/17 03:22:43;;;;;;;;;5.00;5.00;;;;;23.42;47.62;101317.56;2090384;28;47523;-56
2022/05/17 03:23:43;;;;;;;;;13.50;13.00;;;;;23.43;47.55;101321.13;2087889;28;47641;-55
2022/05/17 03:24:44;;;;;;;;;14.25;12.00;;;;;23.42;47.67;101322.97;2094735;28;48221;-56
2022/05/17 03:25:44;;;;;;;;;10.25;10.25;;;;;23.42;47.53;101330.25;2087543;28;47505;-56
2022/05/17 03:26:44;;;;;;;;;8.25;8.25;;;;;23.41;47.56;101323.94;2087737;28;47592;-57
2022/05/17 03:27:45;;;;;;;;;6.00;6.00;;;;;23.40;47.72;101327.63;2090393;28;48015;-57
2022/05/17 03:28:46;;;;;;;;;6.25;4.50;;;;;23.39;47.52;101323.19;2089848;28;48011;-57
2022/05/17 03:29:47;;;;;;;;;5.00;4.75;;;;;23.38;47.88;101324.16;2085807;28;47435;-58
2022/05/17 03:30:47;;;;;;;;;5.75;5.75;;;;;23.38;47.65;101328.72;2087608;28;47612;-57
2022/05/17 03:31:48;;;;;;;;;6.75;6.00;;;;;23.37;47.65;101329.66;2087349;28;47460;-57
2022/05/17 03:32:48;;;;;;;;;7.50;7.50;;;;;23.36;47.80;101323.38;2087858;28;47768;-57
2022/05/17 03:33:48;;;;;;;;;4.50;4.50;;;;;23.36;47.58;101326.06;2086457;28;47605;-57
2022/05/17 03:34:49;;;;;;;;;6.00;5.50;;;;;23.35;47.70;101318.91;2087619;28;47855;-57
2022/05/17 03:35:49;;;;;;;;;5.00;5.00;;;;;23.35;48.02;101328.88;2091282;28;47827;-56
2022/05/17 03:36:50;;;;;;;;;7.00;7.00;;;;;23.34;47.42;101319.91;2086139;28;48023;-57
2022/05/17 03:37:51;;;;;;;;;4.00;4.00;;;;;23.34;47.77;101328.03;2088151;28;47662;-56
2022/05/17 03:38:51;;;;;;;;;6.40;6.40;;;;;23.33;47.84;101314.59;2090036;28;47863;-57
2022/05/17 03:39:52;;;;;;;;;5.00;5.00;;;;;23.32;47.75;101321.84;2088671;28;47325;-57
2022/05/17 03:40:54;;;;;;;;;6.25;5.00;;;;;23.31;47.73;101311.97;2085748;28;47399;-58
2022/05/17 03:41:55;;;;;;;;;7.20;6.00;;;;;23.32;47.42;101318.25;2090130;28;48379;-58
2022/05/17 03:42:55;;;;;;;;;4.00;4.00;;;;;23.31;47.57;101317.41;2087092;28;47891;-58
2022/05/17 03:43:56;;;;;;;;;4.75;4.75;;;;;23.31;48.03;101313.81;2087831;28;47618;-58
2022/05/17 03:44:56;;;;;;;;;6.75;6.75;;;;;23.30;48.09;101310.25;2091101;28;47757;-57
2022/05/17 03:45:57;;;;;;;;;5.00;5.00;;;;;23.31;48.02;101311.09;2086922;28;47538;-56
2022/05/17 03:46:58;;;;;;;;;5.80;5.80;;;;;23.29;48.04;101313.94;2090946;28;48674;-57
2022/05/17 03:47:58;;;;;;;;;5.75;5.75;;;;;23.28;48.36;101316.72;2086870;28;47278;-57
2022/05/17 03:49:02;;;;;;;;;7.00;7.00;;;;;23.26;47.88;101314.13;2087777;28;47936;-56
2022/05/17 03:50:04;;;;;;;;;6.00;6.00;;;;;23.25;48.11;101311.50;2090198;28;47676;-57
2022/05/17 03:51:17;;;;;;;;;7.00;7.00;;;;;23.25;48.20;101308.78;2086729;28;47435;-58
2022/05/17 03:52:17;;;;;;;;;5.40;5.40;;;;;23.24;48.20;101321.47;2088110;28;47841;-57
2022/05/17 03:53:18;;;;;;;;;7.50;6.00;;;;;23.23;48.30;101322.44;2085508;28;47945;-57
2022/05/17 03:54:20;;;;;;;;;6.75;6.75;;;;;23.23;48.21;101313.44;2087715;28;47439;-57
2022/05/17 03:55:21;;;;;;;;;8.20;6.80;;;;;23.21;48.26;101313.53;2088887;28;48030;-57
2022/05/17 03:56:21;;;;;;;;;6.00;6.00;;;;;23.20;48.38;101315.38;2088557;28;48243;-58
2022/05/17 03:57:22;;;;;;;;;8.00;8.00;;;;;23.18;48.45;101321.88;2094494;28;47524;-57
2022/05/17 03:58:23;;;;;;;;;5.20;5.20;;;;;23.17;48.82;101321.00;2087585;28;47723;-57
2022/05/17 03:59:23;;;;;;;;;7.50;7.50;;;;;23.16;48.47;101319.25;2086785;28;47436;-57
2022/05/17 04:00:24;;;;;;;;;7.60;7.60;;;;;23.18;48.38;101321.88;2087399;28;47373;-56
2022/05/17 04:01:24;;;;;;;;;7.00;7.00;;;;;23.17;48.75;101321.00;2088111;28;47638;-56
2022/05/17 04:02:25;;;;;;;;;5.75;5.75;;;;;23.15;48.53;101322.94;2087627;28;45729;-57
2022/05/17 04:03:26;;;;;;;;;8.75;8.75;;;;;23.16;48.79;101321.09;2087312;28;47831;-57
2022/05/17 04:04:26;;;;;;;;;4.00;4.00;;;;;23.15;49.05;101317.53;2087396;28;48323;-57
2022/05/17 04:05:27;;;;;;;;;8.25;7.50;;;;;23.16;48.62;101321.09;2085685;28;47743;-56
2022/05/17 04:06:28;;;;;;;;;6.00;6.00;;;;;23.14;48.59;101315.78;2085660;28;47978;-55
2022/05/17 04:07:29;;;;;;;;;6.00;6.00;;;;;23.14;48.73;101321.22;2087313;28;47630;-56
2022/05/17 04:08:30;;;;;;;;;6.40;6.40;;;;;23.15;48.60;101317.53;2087505;28;47751;-57
2022/05/17 04:09:31;;;;;;;;;7.80;6.80;;;;;23.14;48.90;101315.78;2087234;28;47433;-57
2022/05/17 04:10:31;;;;;;;;;7.75;7.00;;;;;23.14;48.69;101321.22;2087501;28;45596;-58
2022/05/17 04:11:33;;;;;;;;;7.75;7.75;;;;;23.14;48.75;101323.91;2086948;28;46338;-58
2022/05/17 04:12:34;;;;;;;;;8.40;8.40;;;;;23.14;48.91;101325.75;2086854;28;47603;-58
2022/05/17 04:13:34;;;;;;;;;11.00;9.50;;;;;23.11;48.50;101318.66;2079421;28;47546;-56
2022/05/17 04:14:35;;;;;;;;;6.50;6.50;;;;;23.11;48.92;101320.50;2086611;28;47591;-55
2022/05/17 04:15:35;;;;;;;;;7.50;7.50;;;;;23.10;48.90;101318.78;2077334;28;47730;-57
2022/05/17 04:16:38;;;;;;;;;12.50;11.25;;;;;23.11;48.49;101325.94;2085966;28;47975;-57
2022/05/17 04:17:40;;;;;;;;;6.20;6.20;;;;;23.11;48.85;101321.38;2102227;28;47438;-56
2022/05/17 04:18:40;;;;;;;;;6.60;6.20;;;;;23.11;48.81;101320.50;2087165;28;47634;-55
2022/05/17 04:19:40;;;;;;;;;7.50;7.50;;;;;23.12;48.71;101315.03;2087135;28;47422;-57
2022/05/17 04:20:41;;;;;;;;;7.50;7.50;;;;;23.11;48.69;101315.97;2088544;28;47640;-58
2022/05/17 04:21:43;;;;;;;;;10.00;9.00;;;;;23.12;49.01;101325.84;2088651;28;47423;-58
2022/05/17 04:22:48;;;;;;;;;7.00;7.00;;;;;23.11;48.85;101321.38;2088836;28;47858;-58
2022/05/17 04:23:49;;;;;;;;;8.00;7.80;;;;;23.10;49.19;101316.94;2088506;28;47603;-58
2022/05/17 04:24:56;;;;;;;;;9.00;8.00;;;;;23.09;48.98;101314.34;2095136;28;47788;-57
2022/05/17 04:25:57;;;;;;;;;7.00;7.00;;;;;23.11;48.91;101321.38;2086780;28;47559;-57
2022/05/17 04:26:57;;;;;;;;;9.00;9.00;;;;;23.11;48.83;101323.22;2084553;28;48167;-57
2022/05/17 04:27:58;;;;;;;;;5.25;5.25;;;;;23.12;49.25;101320.44;2088477;28;47722;-55
2022/05/17 04:28:58;;;;;;;;;7.00;7.00;;;;;23.12;48.75;101323.16;2088874;28;47795;-57
2022/05/17 04:29:59;;;;;;;;;6.50;6.50;;;;;23.13;49.10;101316.75;2088512;28;47684;-56
2022/05/17 04:30:59;;;;;;;;;9.00;7.50;;;;;23.14;48.61;101320.34;2079215;28;47350;-58
2022/05/17 04:32:00;;;;;;;;;7.00;7.00;;;;;23.15;48.83;101324.78;2079391;28;47359;-57
2022/05/17 04:33:01;;;;;;;;;5.75;5.75;;;;;23.14;48.71;101326.63;2088678;28;48082;-55
2022/05/17 04:34:03;;;;;;;;;7.25;7.25;;;;;23.14;48.91;101326.63;2088688;28;47503;-55
2022/05/17 04:35:05;;;;;;;;;7.80;7.80;;;;;23.13;48.83;101326.72;2088129;28;47697;-57
2022/05/17 04:36:05;;;;;;;;;6.00;6.00;;;;;23.13;48.58;101326.72;2070596;28;47510;-57
2022/05/17 04:37:06;;;;;;;;;7.75;7.00;;;;;23.12;48.83;101330.38;2070620;28;47617;-57
2022/05/17 04:38:07;;;;;;;;;5.00;5.00;;;;;23.12;49.05;101333.09;2085115;28;47934;-57
2022/05/17 04:39:07;;;;;;;;;6.60;6.60;;;;;23.10;48.88;101330.47;2088740;28;47546;-54
2022/05/17 04:40:10;;;;;;;;;5.50;4.50;;;;;23.10;48.90;101327.78;2088357;28;47755;-54
2022/05/17 04:41:11;;;;;;;;;6.80;6.80;;;;;23.10;48.78;101333.19;2078477;28;47926;-56
2022/05/17 04:42:11;;;;;;;;;8.75;6.25;;;;;23.11;48.83;101331.34;2079391;28;47420;-56
2022/05/17 04:43:12;;;;;;;;;7.50;7.50;;;;;23.11;48.87;101334.91;2088469;28;47526;-55
2022/05/17 04:44:12;;;;;;;;;6.75;6.00;;;;;23.11;48.58;101329.50;2088716;28;46931;-57
2022/05/17 04:45:14;;;;;;;;;5.75;5.75;;;;;23.13;49.02;101330.31;2088792;28;47597;-56
2022/05/17 04:46:15;;;;;;;;;7.20;7.20;;;;;23.13;48.74;101334.84;2088585;28;47630;-58
2022/05/17 04:47:15;;;;;;;;;7.75;7.00;;;;;23.12;48.93;101333.09;2088692;28;47756;-56
2022/05/17 04:48:16;;;;;;;;;4.75;4.75;;;;;23.10;48.63;101332.31;2088904;28;48104;-58